Time;durP1;ratioP1;P1;durP2;ratioP2;P2;SDS_P1;SDS_P2;PMS_P1;PMS_P2;Temp;Humidity;BMP_temperature;BMP_pressure;BME280_temperature;BME280_humidity;BME280_pressure;Samples;Min_cycle;Max_cycle;Signal;HPM_P1;HPM_P2
2022/05/17 00:02:02;;;;;;;14.02;9.27;;;16.50;99.90;;;;;;5013436;28;20030;-80
2022/05/17 00:04:27;;;;;;;11.60;9.43;;;16.50;99.90;;;;;;5012027;28;20491;-80
2022/05/17 00:06:53;;;;;;;11.85;9.23;;;16.70;99.90;;;;;;5011251;28;20030;-81
2022/05/17 00:09:18;;;;;;;11.05;9.55;;;16.70;99.90;;;;;;5012451;28;20014;-79
2022/05/17 00:11:45;;;;;;;10.77;9.45;;;16.60;99.90;;;;;;5006926;28;20073;-79
2022/05/17 00:14:12;;;;;;;11.85;10.50;;;16.50;99.90;;;;;;5007956;28;20507;-77
2022/05/17 00:16:38;;;;;;;13.32;9.98;;;16.60;99.90;;;;;;5009078;28;20476;-78
2022/05/17 00:19:04;;;;;;;16.13;11.13;;;16.60;99.90;;;;;;5010887;28;20056;-79
2022/05/17 00:21:29;;;;;;;14.18;11.05;;;16.60;99.90;;;;;;5011275;28;20026;-79
2022/05/17 00:23:55;;;;;;;14.57;11.27;;;16.60;99.90;;;;;;5012546;28;20033;-78
2022/05/17 00:26:21;;;;;;;11.73;10.52;;;16.50;99.90;;;;;;5005106;28;20538;-77
2022/05/17 00:28:46;;;;;;;15.80;12.15;;;16.50;99.90;;;;;;5015895;28;20025;-79
2022/05/17 00:31:12;;;;;;;13.13;11.25;;;16.50;99.90;;;;;;5002773;28;20022;-79
2022/05/17 00:33:38;;;;;;;12.13;10.82;;;16.40;99.90;;;;;;5011284;28;20109;-78
2022/05/17 00:36:04;;;;;;;15.32;12.05;;;16.50;99.90;;;;;;4999955;28;20023;-78
2022/05/17 00:38:30;;;;;;;18.42;12.23;;;16.60;99.90;;;;;;5003124;28;20029;-78
2022/05/17 00:40:56;;;;;;;12.85;11.50;;;16.60;99.90;;;;;;5011676;28;20026;-78
2022/05/17 00:43:29;;;;;;;14.20;11.73;;;16.50;99.90;;;;;;5011258;28;20464;-76
2022/05/17 00:46:00;;;;;;;14.13;12.18;;;16.50;99.90;;;;;;5000857;28;20033;-77
2022/05/17 00:48:26;;;;;;;19.52;12.88;;;16.40;99.90;;;;;;4995431;28;20026;-77
2022/05/17 00:50:54;;;;;;;16.80;12.85;;;16.30;99.90;;;;;;5007451;28;20554;-76
2022/05/17 00:53:32;;;;;;;13.90;12.38;;;16.40;99.90;;;;;;4993045;28;20085;-77
2022/05/17 00:56:00;;;;;;;13.40;11.60;;;16.40;99.90;;;;;;4993900;28;20030;-77
2022/05/17 00:58:28;;;;;;;13.93;11.93;;;16.50;99.90;;;;;;4995634;28;20492;-77
2022/05/17 01:01:12;;;;;;;13.77;12.25;;;16.50;99.90;;;;;;4996436;28;20480;-77
2022/05/17 01:03:58;;;;;;;18.67;13.98;;;16.60;99.90;;;;;;5013873;28;20483;-77
2022/05/17 01:06:27;;;;;;;15.43;13.30;;;16.50;99.90;;;;;;4993979;28;20080;-78
2022/05/17 01:08:53;;;;;;;14.57;13.05;;;16.50;99.90;;;;;;4997493;28;20031;-78
2022/05/17 01:11:18;;;;;;;20.77;15.25;;;16.30;99.90;;;;;;5006017;28;20029;-77
2022/05/17 01:16:28;;;;;;;19.48;13.45;;;16.30;99.90;;;;;;5004475;28;20046;-77
2022/05/17 01:18:54;;;;;;;20.63;15.30;;;16.30;99.90;;;;;;5011258;28;20427;-77
2022/05/17 01:21:20;;;;;;;18.13;14.95;;;16.40;99.90;;;;;;5000008;28;20366;-77
2022/05/17 01:23:45;;;;;;;18.17;16.08;;;16.40;99.90;;;;;;5004376;28;20027;-75
2022/05/17 01:26:25;;;;;;;18.48;15.60;;;16.30;99.90;;;;;;4992610;28;20026;-76
2022/05/17 01:28:50;;;;;;;22.30;16.80;;;16.30;99.90;;;;;;4998894;28;20029;-76
2022/05/17 01:31:18;;;;;;;19.40;15.98;;;16.20;99.90;;;;;;5010339;28;20024;-76
2022/05/17 01:33:43;;;;;;;23.88;15.65;;;16.30;99.90;;;;;;4999133;28;20460;-76
2022/05/17 01:36:11;;;;;;;22.27;15.85;;;16.40;99.90;;;;;;4999365;28;20109;-77
2022/05/17 01:38:37;;;;;;;18.80;15.55;;;16.30;99.90;;;;;;5010192;28;20026;-78
2022/05/17 01:41:04;;;;;;;19.98;16.45;;;16.40;99.90;;;;;;5008792;28;20030;-77
2022/05/17 01:43:29;;;;;;;21.98;16.48;;;16.30;99.90;;;;;;4999969;28;20049;-77
2022/05/17 01:45:55;;;;;;;22.48;16.98;;;16.30;99.90;;;;;;5013017;28;20463;-78
2022/05/17 01:48:20;;;;;;;22.13;17.38;;;16.30;99.90;;;;;;4999444;28;20037;-78
2022/05/17 01:50:46;;;;;;;18.60;15.45;;;16.40;99.90;;;;;;4997117;28;20584;-78
2022/05/17 01:53:12;;;;;;;18.65;15.90;;;16.40;99.90;;;;;;5005669;28;20100;-77
2022/05/17 01:55:38;;;;;;;21.52;17.17;;;16.40;99.90;;;;;;5005710;28;20030;-77
2022/05/17 01:58:04;;;;;;;20.70;16.35;;;16.40;99.90;;;;;;5005683;28;20031;-78
2022/05/17 02:00:30;;;;;;;20.48;15.23;;;16.50;99.90;;;;;;5005297;28;20399;-77
2022/05/17 02:02:56;;;;;;;21.80;17.10;;;16.40;99.90;;;;;;4998786;28;20025;-78
2022/05/17 02:05:24;;;;;;;19.02;15.02;;;16.50;99.90;;;;;;5001145;28;20468;-79
2022/05/17 02:07:50;;;;;;;19.13;16.77;;;16.50;99.90;;;;;;4999486;28;20022;-79
2022/05/17 02:10:17;;;;;;;25.27;17.92;;;16.50;99.90;;;;;;5001397;28;20046;-78
2022/05/17 02:12:43;;;;;;;22.33;17.90;;;16.40;99.90;;;;;;5005072;28;20465;-76
2022/05/17 02:15:09;;;;;;;24.42;18.52;;;16.40;99.90;;;;;;5006860;28;20033;-77
2022/05/17 02:17:35;;;;;;;19.40;16.95;;;16.30;99.90;;;;;;5000251;28;20038;-77
2022/05/17 02:20:02;;;;;;;20.42;17.83;;;16.30;99.90;;;;;;4997313;28;20026;-76
2022/05/17 02:22:27;;;;;;;24.48;19.30;;;16.30;99.90;;;;;;5011316;28;20034;-78
2022/05/17 02:24:53;;;;;;;26.65;19.60;;;16.20;99.90;;;;;;4998642;28;20519;-77
2022/05/17 02:27:19;;;;;;;22.63;17.48;;;16.10;99.90;;;;;;5003535;28;20018;-77
2022/05/17 02:29:44;;;;;;;23.65;19.48;;;16.10;99.90;;;;;;5003923;28;20030;-77
2022/05/17 02:32:11;;;;;;;24.13;18.45;;;16.00;99.90;;;;;;5000496;28;20117;-79
2022/05/17 02:34:37;;;;;;;22.92;18.15;;;16.00;99.90;;;;;;4998462;28;20121;-76
2022/05/17 02:37:05;;;;;;;21.88;17.85;;;16.10;99.90;;;;;;5005868;28;20130;-76
2022/05/17 02:39:31;;;;;;;19.33;16.80;;;16.00;99.90;;;;;;5004523;28;20503;-77
2022/05/17 02:41:57;;;;;;;25.88;17.88;;;16.00;99.90;;;;;;5001828;28;20057;-80
2022/05/17 02:44:23;;;;;;;25.10;20.15;;;16.00;99.90;;;;;;5004932;28;20030;-78
2022/05/17 02:46:49;;;;;;;26.50;21.13;;;16.10;99.90;;;;;;5019137;28;20380;-78
2022/05/17 02:49:14;;;;;;;24.05;19.92;;;16.00;99.90;;;;;;5003206;28;20026;-77
2022/05/17 02:51:40;;;;;;;26.83;21.08;;;15.90;99.90;;;;;;5007367;28;20022;-77
2022/05/17 02:54:07;;;;;;;26.17;21.45;;;15.80;99.90;;;;;;5009142;28;20113;-77
2022/05/17 02:56:33;;;;;;;25.63;21.45;;;15.70;99.90;;;;;;5014964;28;20022;-76
2022/05/17 02:58:59;;;;;;;29.77;22.45;;;15.80;99.90;;;;;;5014369;28;20088;-77
2022/05/17 03:01:24;;;;;;;24.42;21.55;;;15.80;99.90;;;;;;5002069;28;20029;-76
2022/05/17 03:03:50;;;;;;;27.02;22.23;;;15.80;99.90;;;;;;5001922;28;20092;-77
2022/05/17 03:06:15;;;;;;;26.25;22.83;;;15.70;99.90;;;;;;5007872;28;20030;-75
2022/05/17 03:08:41;;;;;;;25.35;21.00;;;15.80;99.90;;;;;;4996398;28;20026;-76
2022/05/17 03:11:07;;;;;;;25.73;20.30;;;15.70;99.90;;;;;;5009347;28;20033;-78
2022/05/17 03:13:34;;;;;;;23.88;20.35;;;15.70;99.90;;;;;;5007533;28;20460;-76
2022/05/17 03:15:59;;;;;;;27.42;21.20;;;15.60;99.90;;;;;;5001261;28;20071;-78
2022/05/17 03:18:25;;;;;;;27.58;22.02;;;15.60;99.90;;;;;;5013320;28;20117;-79
2022/05/17 03:20:51;;;;;;;29.75;23.50;;;15.60;99.90;;;;;;5002290;28;20104;-77
2022/05/17 03:23:16;;;;;;;29.45;23.52;;;15.50;99.90;;;;;;5001354;28;20022;-77
2022/05/17 03:25:42;;;;;;;26.70;22.02;;;15.50;99.90;;;;;;5005853;28;20026;-77
2022/05/17 03:28:11;;;;;;;31.98;24.52;;;15.40;99.90;;;;;;5008006;28;20030;-77
2022/05/17 03:30:37;;;;;;;33.83;25.98;;;15.30;99.90;;;;;;5000815;28;20038;-77
2022/05/17 03:33:02;;;;;;;34.70;26.13;;;15.40;99.90;;;;;;5002612;28;20024;-78
2022/05/17 03:35:28;;;;;;;30.88;24.83;;;15.40;99.90;;;;;;5006129;28;20113;-76
2022/05/17 03:37:53;;;;;;;25.83;20.73;;;15.30;99.90;;;;;;5007932;28;20550;-77
2022/05/17 03:40:19;;;;;;;25.83;21.80;;;15.40;99.90;;;;;;5001713;28;20040;-77
2022/05/17 03:42:45;;;;;;;27.92;22.98;;;15.40;99.90;;;;;;5004139;28;20081;-77
2022/05/17 03:45:11;;;;;;;28.45;23.60;;;15.40;99.90;;;;;;5007186;28;20552;-76
2022/05/17 03:47:36;;;;;;;29.13;23.30;;;15.40;99.90;;;;;;5007249;28;20033;-76
2022/05/17 03:50:04;;;;;;;27.05;21.45;;;15.30;99.90;;;;;;5006887;28;20018;-76
2022/05/17 03:52:31;;;;;;;34.05;26.35;;;15.20;99.90;;;;;;4994462;28;20030;-76
2022/05/17 03:54:58;;;;;;;27.55;22.42;;;15.10;99.90;;;;;;5001683;28;20052;-78
2022/05/17 03:57:25;;;;;;;25.85;21.02;;;15.10;99.90;;;;;;5012750;28;20022;-78
2022/05/17 03:59:50;;;;;;;24.83;21.98;;;15.10;99.90;;;;;;5006561;28;20026;-78
2022/05/17 04:02:16;;;;;;;23.15;20.10;;;15.10;99.90;;;;;;5007264;28;20036;-77
2022/05/17 04:04:41;;;;;;;24.30;21.05;;;15.00;99.90;;;;;;5001542;28;20026;-78
2022/05/17 04:07:07;;;;;;;26.80;21.45;;;15.10;99.90;;;;;;5002240;28;20361;-78
2022/05/17 04:09:33;;;;;;;23.08;19.25;;;15.10;99.90;;;;;;5005092;28;20502;-76
2022/05/17 04:11:59;;;;;;;24.77;19.92;;;15.00;99.90;;;;;;4997597;28;20031;-77
2022/05/17 04:14:24;;;;;;;25.60;21.15;;;15.10;99.90;;;;;;5013584;28;20037;-78
2022/05/17 04:16:51;;;;;;;35.08;25.33;;;15.20;99.90;;;;;;5000694;28;20435;-77
2022/05/17 04:19:17;;;;;;;24.95;21.02;;;15.10;99.90;;;;;;5013798;28;20574;-77
2022/05/17 04:21:43;;;;;;;24.55;21.75;;;15.10;99.90;;;;;;5011231;28;20036;-78
2022/05/17 04:24:10;;;;;;;49.78;31.38;;;15.10;99.90;;;;;;4994257;28;20030;-78
2022/05/17 04:26:36;;;;;;;60.05;34.60;;;15.10;99.90;;;;;;4996033;28;20403;-79
2022/05/17 04:29:03;;;;;;;64.10;36.40;;;15.00;99.90;;;;;;5005238;28;20488;-76
2022/05/17 04:31:28;;;;;;;29.23;24.10;;;14.90;99.90;;;;;;5006249;28;20116;-77
2022/05/17 04:33:54;;;;;;;27.20;22.20;;;15.00;99.90;;;;;;5004352;28;20307;-77
2022/05/17 04:36:20;;;;;;;28.52;22.30;;;15.00;99.90;;;;;;5006919;28;20022;-77
2022/05/17 04:38:46;;;;;;;34.88;26.25;;;15.10;99.90;;;;;;5002458;28;20025;-77
2022/05/17 04:41:11;;;;;;;32.63;25.55;;;15.40;99.90;;;;;;4999459;28;20022;-77
2022/05/17 04:43:38;;;;;;;48.13;32.05;;;15.30;99.90;;;;;;5007025;28;20058;-77
2022/05/17 04:46:04;;;;;;;38.70;29.35;;;15.30;99.90;;;;;;5010820;28;20034;-78
2022/05/17 04:48:29;;;;;;;47.88;32.22;;;15.30;99.90;;;;;;5005492;28;20034;-77
2022/05/17 04:50:55;;;;;;;38.75;28.48;;;15.20;99.90;;;;;;5018106;28;20030;-77
2022/05/17 04:53:20;;;;;;;42.35;30.73;;;15.20;99.90;;;;;;5007268;28;20501;-78
2022/05/17 04:55:47;;;;;;;41.05;30.00;;;15.30;99.90;;;;;;5008573;28;20026;-77
2022/05/17 04:58:12;;;;;;;43.85;31.35;;;15.30;99.90;;;;;;5006893;28;20030;-77
2022/05/17 05:00:38;;;;;;;44.38;32.35;;;15.20;99.90;;;;;;5008430;28;20053;-77
2022/05/17 05:03:04;;;;;;;42.13;32.22;;;15.30;99.90;;;;;;5004641;28;20029;-78
2022/05/17 05:05:30;;;;;;;41.08;30.95;;;15.20;99.90;;;;;;5003146;28;20033;-77
2022/05/17 05:07:56;;;;;;;35.42;28.92;;;15.20;99.90;;;;;;5004087;28;20395;-77
2022/05/17 05:10:22;;;;;;;39.30;29.77;;;15.40;99.90;;;;;;4999325;28;20031;-78
2022/05/17 05:12:48;;;;;;;42.55;31.20;;;15.60;99.90;;;;;;5012726;28;20029;-77
2022/05/17 05:15:14;;;;;;;42.55;30.67;;;15.50;99.90;;;;;;4999509;28;20441;-77
2022/05/17 05:17:40;;;;;;;39.25;29.33;;;15.60;99.90;;;;;;5005967;28;20034;-78
2022/05/17 05:20:10;;;;;;;39.97;29.08;;;15.60;99.90;;;;;;5007376;28;20505;-78
2022/05/17 05:22:36;;;;;;;36.42;27.08;;;15.70;99.90;;;;;;5000950;28;20506;-79
2022/05/17 05:25:01;;;;;;;35.70;27.58;;;15.80;99.90;;;;;;4999108;28;20034;-78
2022/05/17 05:27:35;;;;;;;35.30;28.17;;;15.90;99.90;;;;;;5013665;28;20387;-78
2022/05/17 05:30:03;;;;;;;34.53;27.48;;;15.90;99.90;;;;;;5011921;28;20036;-78
2022/05/17 05:32:28;;;;;;;35.30;26.38;;;15.90;99.90;;;;;;5003950;28;20030;-78
2022/05/17 05:34:54;;;;;;;35.35;27.35;;;16.00;99.90;;;;;;4998013;28;20088;-78
2022/05/17 05:37:19;;;;;;;36.13;28.27;;;16.10;99.90;;;;;;5001626;28;20096;-78
2022/05/17 05:39:45;;;;;;;37.67;28.80;;;16.10;99.90;;;;;;4998652;28;20365;-74
2022/05/17 05:42:10;;;;;;;35.47;27.83;;;16.10;99.90;;;;;;5005075;28;20032;-78
2022/05/17 05:44:36;;;;;;;33.65;28.05;;;16.10;99.90;;;;;;5006074;28;20030;-77
2022/05/17 05:47:02;;;;;;;35.97;27.20;;;16.00;99.90;;;;;;5011897;28;20027;-78
2022/05/17 05:49:27;;;;;;;35.10;28.10;;;16.20;99.90;;;;;;5011942;28;20109;-78
2022/05/17 05:51:53;;;;;;;35.40;28.35;;;16.20;99.90;;;;;;5005157;28;20034;-73
2022/05/17 05:54:19;;;;;;;33.28;27.17;;;16.40;99.90;;;;;;4994419;28;20085;-73
2022/05/17 05:56:44;;;;;;;47.70;32.55;;;16.40;99.90;;;;;;5014662;28;20029;-77
2022/05/17 05:59:10;;;;;;;35.55;28.17;;;16.50;99.90;;;;;;5012121;28;20038;-78
2022/05/17 06:01:36;;;;;;;32.95;27.85;;;16.70;99.90;;;;;;5000813;28;20037;-78
2022/05/17 06:04:03;;;;;;;33.08;27.63;;;16.80;99.90;;;;;;5000518;28;20042;-77
2022/05/17 06:06:28;;;;;;;34.53;27.13;;;16.90;99.90;;;;;;5013562;28;20018;-78
2022/05/17 06:08:55;;;;;;;33.67;28.67;;;16.90;99.90;;;;;;5000299;28;20365;-78
2022/05/17 06:11:21;;;;;;;38.22;29.02;;;16.70;99.90;;;;;;5012487;28;20025;-74
2022/05/17 06:13:47;;;;;;;35.53;28.10;;;16.70;99.90;;;;;;4998637;28;20026;-78
2022/05/17 06:16:12;;;;;;;29.92;25.27;;;16.60;99.90;;;;;;5003377;28;20481;-78
2022/05/17 06:18:38;;;;;;;31.13;26.08;;;16.80;99.90;;;;;;5008069;28;20080;-77
2022/05/17 06:21:03;;;;;;;31.27;26.08;;;16.80;99.90;;;;;;5002973;28;20072;-77
2022/05/17 06:23:29;;;;;;;37.08;27.92;;;17.00;99.90;;;;;;5002499;28;20461;-77
2022/05/17 06:25:55;;;;;;;36.30;28.20;;;16.90;99.90;;;;;;5005821;28;20038;-78
2022/05/17 06:28:21;;;;;;;34.20;27.90;;;16.70;99.90;;;;;;5007985;28;20038;-75
2022/05/17 06:30:46;;;;;;;35.58;27.77;;;16.60;99.90;;;;;;5002424;28;20546;-78
2022/05/17 06:33:13;;;;;;;38.45;27.70;;;16.80;99.90;;;;;;5000330;28;20015;-77
2022/05/17 06:35:41;;;;;;;35.72;27.27;;;16.80;99.90;;;;;;5007716;28;20022;-78
2022/05/17 06:38:07;;;;;;;33.00;26.35;;;17.00;99.90;;;;;;4996203;28;20036;-78
2022/05/17 06:40:33;;;;;;;37.85;27.25;;;17.10;99.90;;;;;;5006465;28;20077;-77
2022/05/17 06:42:59;;;;;;;33.28;26.42;;;17.30;99.90;;;;;;5009746;28;20022;-76
2022/05/17 06:45:25;;;;;;;36.40;25.95;;;17.40;99.90;;;;;;5003569;28;20026;-77
2022/05/17 06:47:50;;;;;;;30.98;24.77;;;17.70;99.90;;;;;;5001898;28;20365;-77
2022/05/17 06:50:16;;;;;;;28.45;23.88;;;17.90;99.90;;;;;;5004466;28;20026;-77
2022/05/17 06:52:44;;;;;;;33.88;25.33;;;17.50;99.90;;;;;;5001216;28;20444;-76
2022/05/17 06:55:09;;;;;;;32.13;24.10;;;17.30;99.90;;;;;;5015932;28;20390;-77
2022/05/17 06:57:36;;;;;;;31.45;23.45;;;17.30;99.90;;;;;;5000528;28;20034;-76
2022/05/17 07:00:07;;;;;;;31.27;22.55;;;17.50;99.90;;;;;;5004845;28;20068;-77
2022/05/17 07:02:32;;;;;;;31.23;24.73;;;17.70;99.90;;;;;;5011972;28;20026;-77
2022/05/17 07:04:59;;;;;;;29.83;22.92;;;17.80;99.90;;;;;;4995581;28;20026;-77
2022/05/17 07:07:26;;;;;;;29.27;23.92;;;17.70;99.90;;;;;;5008801;28;20105;-77
2022/05/17 07:15:19;;;;;;;30.77;21.83;;;17.20;99.90;;;;;;5001058;28;20412;-77
2022/05/17 07:17:44;;;;;;;29.08;24.00;;;17.60;99.90;;;;;;5004442;28;20059;-77
2022/05/17 07:20:11;;;;;;;29.35;21.52;;;17.90;99.90;;;;;;5000245;28;20081;-79
2022/05/17 07:22:37;;;;;;;32.13;23.08;;;17.70;99.90;;;;;;4994875;28;20081;-78
2022/05/17 07:25:03;;;;;;;28.33;22.27;;;17.70;99.90;;;;;;5009732;28;20080;-78
2022/05/17 07:27:28;;;;;;;29.60;22.75;;;17.50;99.90;;;;;;5005582;28;20026;-77
2022/05/17 07:29:54;;;;;;;25.92;20.85;;;17.50;99.90;;;;;;4995832;28;20089;-78
2022/05/17 07:32:19;;;;;;;25.27;21.15;;;17.60;99.90;;;;;;5006412;28;20026;-77
2022/05/17 07:34:46;;;;;;;28.48;19.98;;;17.80;99.90;;;;;;5008101;28;20030;-77
2022/05/17 07:37:11;;;;;;;26.65;19.60;;;17.70;99.90;;;;;;5003063;28;20083;-77
2022/05/17 07:39:37;;;;;;;27.05;20.63;;;17.80;99.90;;;;;;5002456;28;20034;-77
2022/05/17 07:42:04;;;;;;;26.95;20.20;;;17.90;99.90;;;;;;5006400;28;20030;-76
2022/05/17 07:44:30;;;;;;;24.13;18.10;;;18.40;99.90;;;;;;5007509;28;20122;-78
2022/05/17 07:46:56;;;;;;;23.90;18.48;;;18.50;99.90;;;;;;5003755;28;20048;-77
2022/05/17 07:49:21;;;;;;;22.00;16.70;;;18.50;99.90;;;;;;5003779;28;20505;-77
2022/05/17 07:51:47;;;;;;;19.05;15.70;;;18.50;99.90;;;;;;5014057;28;20022;-77
2022/05/17 07:54:14;;;;;;;23.35;17.27;;;18.20;99.90;;;;;;5014185;28;20439;-77
2022/05/17 07:56:39;;;;;;;19.15;14.77;;;18.00;99.90;;;;;;5014995;28;20054;-77
2022/05/17 07:59:05;;;;;;;24.50;18.23;;;18.10;99.90;;;;;;5012721;28;20076;-77
2022/05/17 08:01:30;;;;;;;23.25;18.20;;;18.00;99.90;;;;;;4994031;28;20030;-77
2022/05/17 08:03:56;;;;;;;25.25;17.77;;;18.10;99.90;;;;;;5007800;28;20022;-77
2022/05/17 08:06:21;;;;;;;22.23;17.25;;;18.00;99.90;;;;;;5007125;28;20018;-77
2022/05/17 08:08:47;;;;;;;22.88;16.48;;;18.40;99.90;;;;;;4995295;28;20427;-78
2022/05/17 08:11:13;;;;;;;22.15;15.50;;;18.30;99.90;;;;;;5014636;28;20022;-77
2022/05/17 08:13:38;;;;;;;17.20;15.13;;;18.50;99.90;;;;;;5002133;28;20628;-77
2022/05/17 08:16:04;;;;;;;21.45;15.85;;;18.60;99.90;;;;;;5007197;28;20505;-77
2022/05/17 08:18:30;;;;;;;21.08;15.68;;;18.60;99.90;;;;;;5009284;28;20041;-77
2022/05/17 08:20:56;;;;;;;21.95;16.42;;;18.30;99.90;;;;;;5005379;28;20120;-77
2022/05/17 08:23:21;;;;;;;23.33;16.95;;;18.20;99.90;;;;;;4995521;28;20049;-77
2022/05/17 08:28:31;;;;;;;23.58;17.67;;;18.10;99.90;;;;;;5014676;28;20092;-77
2022/05/17 08:30:57;;;;;;;20.63;14.32;;;18.60;99.90;;;;;;5013610;28;20029;-77
2022/05/17 08:33:26;;;;;;;17.08;14.57;;;19.30;99.90;;;;;;5009778;28;20030;-77
2022/05/17 08:36:00;;;;;;;17.80;12.75;;;19.40;99.90;;;;;;5004225;28;20104;-77
2022/05/17 08:38:39;;;;;;;18.42;12.18;;;19.40;99.90;;;;;;5000299;28;20101;-78
2022/05/17 08:41:07;;;;;;;16.00;11.15;;;19.60;99.90;;;;;;4999764;28;20082;-78
2022/05/17 08:44:02;;;;;;;13.00;10.65;;;19.50;99.90;;;;;;5000649;28;20037;-78
2022/05/17 08:46:56;;;;;;;15.40;9.13;;;19.30;99.90;;;;;;5009017;28;20022;-78
2022/05/17 08:49:43;;;;;;;15.68;9.35;;;19.30;99.90;;;;;;5005425;28;20018;-78
2022/05/17 08:52:18;;;;;;;15.10;9.75;;;19.20;99.90;;;;;;4994066;28;20046;-79
2022/05/17 08:54:59;;;;;;;10.95;7.43;;;19.60;99.90;;;;;;5001548;28;20076;-78
2022/05/17 08:57:37;;;;;;;10.77;6.65;;;20.10;99.90;;;;;;5014266;28;20022;-79
2022/05/17 09:00:34;;;;;;;11.77;6.55;;;20.30;99.90;;;;;;5004877;28;20076;-79
2022/05/17 09:03:01;;;;;;;;;;;20.30;99.90;;;;;;5006012;28;20034;-78
2022/05/17 09:05:48;;;;;;;12.15;7.70;;;20.20;99.90;;;;;;5001022;28;19910;-78
2022/05/17 09:08:20;;;;;;;15.10;9.70;;;20.40;99.90;;;;;;5005454;28;20038;-77
2022/05/17 09:11:04;;;;;;;8.93;7.10;;;20.50;99.90;;;;;;4993093;28;20033;-78
2022/05/17 09:13:48;;;;;;;12.90;8.15;;;20.40;99.90;;;;;;5007455;28;20026;-78
2022/05/17 09:16:15;;;;;;;11.57;8.00;;;20.40;99.90;;;;;;5003591;28;20029;-78
2022/05/17 09:18:43;;;;;;;11.43;7.60;;;20.50;99.90;;;;;;4999939;28;20550;-77
2022/05/17 09:21:35;;;;;;;11.07;7.15;;;20.20;99.90;;;;;;5002833;28;20029;-75
2022/05/17 09:24:12;;;;;;;10.55;7.60;;;19.80;99.90;;;;;;5007876;28;20046;-78
2022/05/17 09:26:40;;;;;;;9.27;6.50;;;20.00;99.90;;;;;;5010699;28;20022;-78
2022/05/17 09:29:19;;;;;;;8.93;6.45;;;20.40;99.90;;;;;;5015836;28;20027;-78
2022/05/17 09:32:00;;;;;;;9.50;5.97;;;20.50;99.90;;;;;;5014083;28;20454;-78
2022/05/17 09:34:38;;;;;;;8.70;5.38;;;20.40;99.90;;;;;;5008645;28;20034;-78
2022/05/17 09:37:12;;;;;;;9.85;5.32;;;20.20;99.90;;;;;;4999662;28;20064;-78
2022/05/17 09:39:38;;;;;;;9.15;6.38;;;20.00;99.90;;;;;;4998097;28;20030;-78
2022/05/17 09:42:06;;;;;;;8.15;5.60;;;19.90;99.90;;;;;;5001246;28;20048;-77
2022/05/17 09:44:33;;;;;;;9.23;6.13;;;20.10;99.90;;;;;;5012486;28;20064;-78
2022/05/17 09:47:03;;;;;;;9.82;5.70;;;20.20;99.90;;;;;;5005980;28;20022;-78
2022/05/17 09:52:46;;;;;;;6.50;4.10;;;20.80;99.90;;;;;;5004924;28;20053;-78
2022/05/17 09:55:14;;;;;;;7.15;4.65;;;21.00;99.90;;;;;;5011173;28;20022;-74
2022/05/17 09:57:55;;;;;;;7.25;4.38;;;20.90;99.90;;;;;;5012241;28;20022;-78
2022/05/17 10:00:27;;;;;;;9.00;4.72;;;21.30;99.90;;;;;;4999971;28;20019;-77
2022/05/17 10:03:12;;;;;;;9.00;4.70;;;21.20;99.90;;;;;;5008691;28;20118;-78
2022/05/17 10:05:37;;;;;;;4.93;3.55;;;21.40;99.90;;;;;;4997607;28;20447;-78
2022/05/17 10:08:24;;;;;;;8.60;4.57;;;21.30;99.90;;;;;;5003636;28;20101;-77
2022/05/17 10:11:22;;;;;;;8.18;4.28;;;21.10;99.90;;;;;;5003776;28;20117;-77
2022/05/17 10:14:28;;;;;;;8.02;4.32;;;20.90;99.90;;;;;;4992299;28;20034;-78
2022/05/17 10:17:32;;;;;;;6.53;4.63;;;20.80;99.90;;;;;;5004011;28;20053;-74
2022/05/17 10:20:10;;;;;;;7.05;3.90;;;21.00;99.90;;;;;;4992258;28;20062;-74
2022/05/17 10:22:54;;;;;;;10.00;4.20;;;21.20;99.90;;;;;;4998929;28;20030;-75
2022/05/17 10:25:31;;;;;;;8.35;3.80;;;21.50;99.90;;;;;;5007587;28;20031;-74
2022/05/17 10:28:09;;;;;;;6.43;3.80;;;21.80;99.90;;;;;;5004406;28;20022;-74
2022/05/17 10:30:55;;;;;;;4.40;3.50;;;22.10;99.90;;;;;;4991767;28;20030;-75
2022/05/17 10:33:57;;;;;;;6.85;3.67;;;22.20;99.90;;;;;;5004148;28;20045;-76
2022/05/17 10:36:44;;;;;;;8.82;4.80;;;22.40;99.90;;;;;;5004150;28;20038;-76
2022/05/17 10:39:22;;;;;;;6.18;5.20;;;22.00;99.90;;;;;;5003429;28;20029;-75
2022/05/17 10:41:48;;;;;;;7.65;4.40;;;21.90;99.90;;;;;;5009957;28;20048;-75
2022/05/17 10:44:18;;;;;;;7.28;4.00;;;21.60;99.90;;;;;;4998996;28;20026;-75
2022/05/17 10:46:53;;;;;;;5.35;3.95;;;21.80;99.90;;;;;;4992167;28;20022;-75
2022/05/17 10:49:52;;;;;;;6.40;3.72;;;21.80;99.90;;;;;;4993399;28;20023;-76
2022/05/17 10:52:35;;;;;;;6.45;3.85;;;21.70;99.90;;;;;;4985537;28;20042;-76
2022/05/17 10:55:19;;;;;;;6.28;3.97;;;22.10;99.90;;;;;;4990902;28;20037;-75
2022/05/17 10:57:59;;;;;;;5.32;3.63;;;22.20;99.90;;;;;;5009260;28;20549;-75
2022/05/17 11:00:34;;;;;;;4.75;3.65;;;22.40;99.90;;;;;;4999114;28;20145;-75
2022/05/17 11:03:21;;;;;;;7.70;3.45;;;22.50;99.90;;;;;;4998118;28;20037;-76
2022/05/17 11:06:11;;;;;;;5.78;3.33;;;22.70;99.90;;;;;;4998302;28;20506;-73
2022/05/17 11:09:01;;;;;;;5.30;3.63;;;22.20;99.90;;;;;;5007874;28;20030;-75
2022/05/17 11:11:57;;;;;;;4.85;3.50;;;22.10;99.90;;;;;;4994763;28;20030;-75
2022/05/17 11:14:30;;;;;;;;;;;22.60;99.90;;;;;;4996023;28;20511;-75
2022/05/17 11:17:01;;;;;;;5.35;3.53;;;23.00;99.90;;;;;;5008386;28;20003;-77
2022/05/17 11:19:37;;;;;;;4.38;3.30;;;23.30;99.90;;;;;;5002600;28;20030;-78
2022/05/17 11:22:14;;;;;;;4.65;3.15;;;23.20;99.90;;;;;;5002560;28;20496;-77
2022/05/17 11:25:21;;;;;;;6.93;3.22;;;22.30;99.90;;;;;;5001018;28;20026;-78
2022/05/17 11:28:15;;;;;;;5.22;2.75;;;22.40;99.90;;;;;;5003177;28;20030;-79
2022/05/17 11:30:52;;;;;;;4.43;2.78;;;22.50;99.90;;;;;;5024934;28;20026;-78
2022/05/17 11:33:24;;;;;;;4.60;3.05;;;22.60;99.90;;;;;;5010921;28;20026;-75
2022/05/17 11:35:51;;;;;;;5.45;2.95;;;22.30;99.90;;;;;;5010980;28;20036;-76
2022/05/17 11:38:39;;;;;;;4.93;2.60;;;22.40;99.90;;;;;;5014009;28;20133;-76
2022/05/17 11:41:14;;;;;;;5.57;2.97;;;22.60;99.90;;;;;;4991808;28;20117;-75
2022/05/17 11:43:55;;;;;;;5.20;2.90;;;22.80;99.90;;;;;;4994819;28;20040;-74
2022/05/17 11:46:33;;;;;;;3.78;2.97;;;23.30;99.90;;;;;;5012705;28;20030;-77
2022/05/17 11:49:01;;;;;;;3.42;2.22;;;23.40;99.90;;;;;;5013319;28;20021;-75
2022/05/17 11:51:32;;;;;;;5.28;2.90;;;23.30;99.90;;;;;;5008393;28;20424;-75
2022/05/17 11:54:00;;;;;;;6.22;2.83;;;23.20;99.90;;;;;;5052552;23;20045;-73
2022/05/17 11:56:25;;;;;;;4.45;2.72;;;23.40;99.90;;;;;;5033725;28;20482;-73
2022/05/17 11:59:09;;;;;;;5.25;2.65;;;23.70;99.90;;;;;;5033134;28;20100;-73
2022/05/17 12:01:35;;;;;;;4.05;2.80;;;23.40;99.90;;;;;;5032863;28;20379;-72
2022/05/17 12:04:28;;;;;;;4.80;2.80;;;23.40;99.90;;;;;;5048624;28;20032;-73
2022/05/17 12:06:54;;;;;;;4.10;2.88;;;23.20;99.90;;;;;;5048765;28;20041;-73
2022/05/17 12:09:47;;;;;;;3.25;2.35;;;23.40;99.90;;;;;;5033234;28;20067;-73
2022/05/17 12:12:31;;;;;;;7.75;2.78;;;23.70;99.90;;;;;;5046166;28;20124;-73
2022/05/17 12:15:18;;;;;;;3.72;2.40;;;23.30;99.90;;;;;;5043218;28;20021;-73
2022/05/17 12:17:46;;;;;;;;;;;23.90;99.90;;;;;;5021845;28;20029;-73
2022/05/17 12:20:38;;;;;;;5.15;2.50;;;24.00;99.90;;;;;;5032992;28;20027;-72
2022/05/17 12:23:22;;;;;;;5.35;2.70;;;23.20;99.90;;;;;;5033279;28;20386;-74
2022/05/17 12:26:00;;;;;;;5.53;3.00;;;23.00;99.90;;;;;;5031813;28;20032;-73
2022/05/17 12:28:35;;;;;;;4.53;2.78;;;23.40;99.90;;;;;;5031808;28;20088;-73
2022/05/17 12:31:07;;;;;;;5.28;2.75;;;23.70;99.90;;;;;;5032465;28;20102;-73
2022/05/17 12:33:37;;;;;;;6.28;2.90;;;24.60;99.90;;;;;;5032911;28;20025;-73
2022/05/17 12:36:14;;;;;;;4.22;2.72;;;25.10;99.90;;;;;;5044623;28;20036;-73
2022/05/17 12:44:16;;;;;;;4.40;2.60;;;25.30;99.90;;;;;;5052898;28;20398;-73
2022/05/17 12:46:46;;;;;;;7.32;2.83;;;25.10;99.90;;;;;;5033274;28;20037;-73
2022/05/17 12:49:35;;;;;;;5.47;2.70;;;25.00;99.90;;;;;;5032688;28;20491;-73
2022/05/17 12:52:14;;;;;;;4.13;3.10;;;25.40;99.90;;;;;;5031930;28;20167;-72
2022/05/17 12:54:40;;;;;;;4.65;2.60;;;25.40;99.90;;;;;;5032639;28;20029;-72
2022/05/17 12:57:38;;;;;;;5.22;2.78;;;25.50;99.90;;;;;;5031327;28;20080;-72
2022/05/17 13:00:16;;;;;;;3.17;2.60;;;25.90;99.90;;;;;;5017007;28;20491;-74
2022/05/17 13:02:51;;;;;;;3.30;2.47;;;26.40;99.90;;;;;;5032661;28;20064;-73
2022/05/17 13:05:40;;;;;;;4.15;2.58;;;26.90;99.90;;;;;;5032496;28;20113;-73
2022/05/17 13:08:12;;;;;;;4.93;2.70;;;26.70;99.90;;;;;;5019910;28;20459;-73
2022/05/17 13:10:41;;;;;;;4.28;2.28;;;26.40;99.90;;;;;;5046072;28;20429;-72